createdAt,value
2023-05-04T00:02:19.444Z,99062.56
2023-05-04T00:04:48.303Z,99061.66
2023-05-04T00:07:17.344Z,99062.56
2023-05-04T00:09:47.033Z,99058.25
2023-05-04T00:12:15.563Z,99054.34
2023-05-04T00:14:43.852Z,99059.00
2023-05-04T00:17:12.955Z,99059.03
2023-05-04T00:19:42.368Z,99051.34
2023-05-04T00:22:11.150Z,99054.38
2023-05-04T00:24:39.645Z,99055.22
2023-05-04T00:27:10.345Z,99049.34
2023-05-04T00:29:40.406Z,99041.22
2023-05-04T00:32:09.150Z,99042.59
2023-05-04T00:34:37.836Z,99042.28
2023-05-04T00:37:06.806Z,99053.38
2023-05-04T00:39:36.235Z,99048.94
2023-05-04T00:42:04.943Z,99044.03
2023-05-04T00:44:34.871Z,99034.88
2023-05-04T00:47:04.252Z,99042.91
2023-05-04T00:49:32.564Z,99035.00
2023-05-04T00:52:03.073Z,99027.75
2023-05-04T00:54:31.673Z,99030.91
2023-05-04T00:57:00.444Z,99032.53
2023-05-04T00:59:29.203Z,99039.94
2023-05-04T01:01:59.207Z,99031.38
2023-05-04T01:04:27.898Z,99033.91
2023-05-04T01:07:02.139Z,99023.91
2023-05-04T01:09:33.871Z,99025.88
2023-05-04T01:12:06.668Z,99026.69
2023-05-04T01:14:36.022Z,99030.31
2023-05-04T01:17:07.498Z,99028.63
2023-05-04T01:19:36.527Z,99035.00
2023-05-04T01:22:08.318Z,99026.22
2023-05-04T01:24:36.720Z,99019.91
2023-05-04T01:27:07.825Z,99029.78
2023-05-04T01:29:42.212Z,99031.16
2023-05-04T01:32:12.062Z,99024.59
2023-05-04T01:34:41.582Z,99023.19
2023-05-04T01:37:12.353Z,99017.72
2023-05-04T01:39:40.839Z,99013.91
2023-05-04T01:42:09.504Z,99010.34
2023-05-04T01:44:38.058Z,99013.66
2023-05-04T01:47:07.005Z,99016.41
2023-05-04T01:49:35.253Z,99006.81
2023-05-04T01:52:04.143Z,99011.19
2023-05-04T01:54:34.176Z,99008.41
2023-05-04T01:57:03.243Z,99008.47
2023-05-04T01:59:31.991Z,99008.72
2023-05-04T02:02:00.595Z,99013.66
2023-05-04T02:04:29.110Z,99009.53
2023-05-04T02:06:57.772Z,99004.84
2023-05-04T02:09:26.498Z,99010.66
2023-05-04T02:11:56.732Z,99007.88
2023-05-04T02:14:25.026Z,99004.31
2023-05-04T02:16:53.893Z,99012.28
2023-05-04T02:19:22.229Z,99012.78
2023-05-04T02:21:52.616Z,99011.44
2023-05-04T02:24:21.702Z,99002.38
2023-05-04T02:26:50.316Z,99000.47
2023-05-04T02:29:20.412Z,99004.91
2023-05-04T02:31:49.179Z,99001.81
2023-05-04T02:34:17.529Z,99002.38
2023-05-04T02:36:47.305Z,99004.53
2023-05-04T02:39:15.725Z,99007.56
2023-05-04T02:41:44.634Z,99003.97
2023-05-04T02:44:13.082Z,99011.94
2023-05-04T02:46:43.613Z,99005.16
2023-05-04T02:49:12.030Z,99015.50
2023-05-04T02:51:40.627Z,99015.00
2023-05-04T02:54:09.141Z,99022.09
2023-05-04T02:56:37.683Z,99012.47
2023-05-04T02:59:06.265Z,99020.72
2023-05-04T03:01:35.097Z,99021.81
2023-05-04T03:04:05.078Z,99010.91
2023-05-04T03:06:33.987Z,99013.91
2023-05-04T03:09:02.218Z,99017.69
2023-05-04T03:11:31.876Z,99020.78
2023-05-04T03:14:00.075Z,99015.78
2023-05-04T03:16:29.117Z,99013.59
2023-05-04T03:18:58.301Z,99016.59
2023-05-04T03:21:28.284Z,99006.25
2023-05-04T03:23:57.072Z,99006.72
2023-05-04T03:26:25.870Z,99005.66
2023-05-04T03:28:54.884Z,99005.66
2023-05-04T03:31:23.594Z,99017.16
2023-05-04T03:33:52.107Z,99013.28
2023-05-04T03:36:20.747Z,99014.94
2023-05-04T03:38:50.362Z,99013.91
2023-05-04T03:41:19.087Z,99013.94
2023-05-04T03:43:47.712Z,99018.06
2023-05-04T03:46:16.401Z,99026.56
2023-05-04T03:48:44.803Z,99023.25
2023-05-04T03:51:13.464Z,99011.72
2023-05-04T03:53:43.417Z,99018.56
2023-05-04T03:56:15.106Z,99021.16
2023-05-04T03:58:43.278Z,99021.84
2023-05-04T04:01:12.002Z,99023.09
2023-05-04T04:03:41.140Z,99020.88
2023-05-04T04:06:10.767Z,99022.88
2023-05-04T04:08:39.181Z,99016.72
2023-05-04T04:11:07.766Z,99020.13
2023-05-04T04:13:38.452Z,99021.53
2023-05-04T04:16:07.876Z,99022.66
2023-05-04T04:18:36.400Z,99024.38
2023-05-04T04:21:05.276Z,99019.41
2023-05-04T04:23:33.680Z,99014.06
2023-05-04T04:26:02.949Z,99018.56
2023-05-04T04:28:31.323Z,99018.94
2023-05-04T04:31:02.044Z,99023.69
2023-05-04T04:33:30.449Z,99028.28
2023-05-04T04:35:59.156Z,99025.75
2023-05-04T04:38:27.499Z,99023.38
2023-05-04T04:40:55.971Z,99018.41
2023-05-04T04:43:24.566Z,99030.81
2023-05-04T04:45:54.034Z,99027.84
2023-05-04T04:48:25.449Z,99023.44
2023-05-04T04:50:54.294Z,99023.63
2023-05-04T04:53:22.842Z,99020.63
2023-05-04T04:55:52.446Z,99022.38
2023-05-04T04:58:21.101Z,99012.13
2023-05-04T05:00:52.376Z,99019.00
2023-05-04T05:03:21.012Z,99012.50
2023-05-04T05:05:51.220Z,99015.69
2023-05-04T05:08:19.641Z,99014.31
2023-05-04T05:10:48.131Z,99017.59
2023-05-04T05:13:16.816Z,99011.94
2023-05-04T05:15:46.573Z,99020.53
2023-05-04T05:18:14.910Z,99014.50
2023-05-04T05:20:43.791Z,99014.00
2023-05-04T05:23:13.328Z,99022.34
2023-05-04T05:25:44.018Z,99025.59
2023-05-04T05:28:12.255Z,99023.94
2023-05-04T05:30:41.001Z,99029.16
2023-05-04T05:33:10.424Z,99019.19
2023-05-04T05:35:39.191Z,99021.22
2023-05-04T05:38:07.502Z,99026.91
2023-05-04T05:40:37.968Z,99023.56
2023-05-04T05:43:06.728Z,99019.53
2023-05-04T05:45:35.296Z,99020.56
2023-05-04T05:48:04.325Z,99028.63
2023-05-04T05:50:33.053Z,99011.31
2023-05-04T05:53:01.541Z,99024.56
2023-05-04T05:55:30.110Z,99017.63
2023-05-04T05:57:59.781Z,99018.66
2023-05-04T06:00:28.644Z,99023.50
2023-05-04T06:02:56.992Z,99024.28
2023-05-04T06:05:25.952Z,99022.66
2023-05-04T06:07:54.593Z,99023.47
2023-05-04T06:10:23.334Z,99025.50
2023-05-04T06:12:51.608Z,99020.78
2023-05-04T06:15:21.591Z,99020.81
2023-05-04T06:17:50.005Z,99017.41
2023-05-04T06:20:19.234Z,99025.81
2023-05-04T06:22:47.918Z,99020.97
2023-05-04T06:25:16.644Z,99024.69
2023-05-04T06:27:45.392Z,99019.44
2023-05-04T06:30:16.083Z,99018.63
2023-05-04T06:32:47.180Z,99021.41
2023-05-04T06:35:16.383Z,99014.88
2023-05-04T06:37:44.971Z,99018.38
2023-05-04T06:40:16.121Z,99018.59
2023-05-04T06:42:45.181Z,99005.34
2023-05-04T06:45:16.027Z,99005.59
2023-05-04T06:47:46.270Z,99008.41
2023-05-04T06:50:15.784Z,99005.09
2023-05-04T06:52:45.430Z,99009.97
2023-05-04T06:55:15.444Z,99010.34
2023-05-04T06:57:44.189Z,99019.41
2023-05-04T07:00:15.073Z,99012.94
2023-05-04T07:02:43.938Z,99012.88
2023-05-04T07:05:14.879Z,99009.94
2023-05-04T07:07:43.346Z,99007.72
2023-05-04T07:10:12.535Z,99009.41
2023-05-04T07:12:43.781Z,99003.66
2023-05-04T07:15:13.231Z,99002.34
2023-05-04T07:17:42.188Z,99008.84
2023-05-04T07:20:13.263Z,99008.19
2023-05-04T07:22:43.358Z,99010.75
2023-05-04T07:25:12.174Z,99005.75
2023-05-04T07:27:45.066Z,98995.41
2023-05-04T07:30:15.337Z,99010.09
2023-05-04T07:32:43.800Z,99022.63
2023-05-04T07:35:12.851Z,99012.94
2023-05-04T07:37:42.807Z,99003.25
2023-05-04T07:40:15.137Z,98997.84
2023-05-04T07:42:44.053Z,99009.09
2023-05-04T07:45:13.398Z,99010.94
2023-05-04T07:47:43.557Z,99010.28
2023-05-04T07:50:15.022Z,99002.16
2023-05-04T07:52:49.781Z,99004.78
2023-05-04T07:55:33.327Z,99001.03
2023-05-04T07:58:02.475Z,98992.50
2023-05-04T08:00:31.217Z,99003.34
2023-05-04T08:03:00.284Z,98988.59
2023-05-04T08:05:29.104Z,98997.56
2023-05-04T08:07:59.231Z,98995.69
2023-05-04T08:10:27.724Z,98998.00
2023-05-04T08:12:57.253Z,98994.69
2023-05-04T08:15:25.700Z,98991.72
2023-05-04T08:17:55.068Z,99002.06
2023-05-04T08:20:24.187Z,99001.34
2023-05-04T08:22:53.508Z,98992.81
2023-05-04T08:25:23.626Z,98995.13
2023-05-04T08:27:52.186Z,98994.78
2023-05-04T08:30:20.567Z,99005.13
2023-05-04T08:32:51.358Z,98997.66
2023-05-04T08:35:19.662Z,99003.13
2023-05-04T08:37:49.518Z,98999.38
2023-05-04T08:40:19.219Z,99003.22
2023-05-04T08:42:50.874Z,99003.75
2023-05-04T08:45:19.505Z,99004.94
2023-05-04T08:47:48.253Z,99000.31
2023-05-04T08:50:17.376Z,99001.41
2023-05-04T08:52:47.723Z,99005.44
2023-05-04T08:55:17.254Z,98992.63
2023-05-04T08:57:46.396Z,99001.75
2023-05-04T09:00:18.168Z,98990.91
2023-05-04T09:02:50.638Z,98991.41
2023-05-04T09:05:19.776Z,98993.66
2023-05-04T09:07:51.096Z,98993.69
2023-05-04T09:10:20.197Z,98973.50
2023-05-04T09:12:48.956Z,98987.16
2023-05-04T09:15:19.950Z,98986.72
2023-05-04T09:17:57.996Z,98992.19
2023-05-04T09:20:27.485Z,98991.81
2023-05-04T09:23:07.393Z,98997.41
2023-05-04T09:25:36.176Z,98993.56
2023-05-04T09:28:05.180Z,98979.81
2023-05-04T09:30:34.758Z,98980.38
2023-05-04T09:33:03.640Z,98976.25
2023-05-04T09:35:34.144Z,98985.88
2023-05-04T09:38:04.165Z,98982.69
2023-05-04T09:40:33.118Z,98972.03
2023-05-04T09:43:02.249Z,98970.94
2023-05-04T09:45:41.661Z,98959.31
2023-05-04T09:48:19.394Z,98975.06
2023-05-04T09:50:53.746Z,98975.00
2023-05-04T09:53:24.710Z,98964.81
2023-05-04T09:56:06.517Z,98956.47
2023-05-04T09:58:37.306Z,98964.47
2023-05-04T10:01:09.163Z,98954.09
2023-05-04T10:03:40.000Z,98959.09
2023-05-04T10:06:09.859Z,98952.13
2023-05-04T10:08:40.392Z,98944.34
2023-05-04T10:11:08.674Z,98941.63
2023-05-04T10:13:37.624Z,98957.09
2023-05-04T10:16:15.526Z,98944.59
2023-05-04T10:19:13.997Z,98936.63
2023-05-04T10:21:50.420Z,98931.00
2023-05-04T10:24:33.288Z,98924.28
2023-05-04T10:27:07.445Z,98927.47
2023-05-04T10:29:36.513Z,98921.53
2023-05-04T10:32:08.250Z,98905.28
2023-05-04T10:34:38.160Z,98903.69
2023-05-04T10:37:17.596Z,98910.56
2023-05-04T10:39:52.340Z,98911.13
2023-05-04T10:42:20.994Z,98889.50
2023-05-04T10:44:55.221Z,98890.69
2023-05-04T10:47:33.976Z,98901.19
2023-05-04T10:50:04.394Z,98894.19
2023-05-04T10:52:32.816Z,98896.91
2023-05-04T10:55:02.572Z,98897.22
2023-05-04T10:57:31.562Z,98897.81
2023-05-04T11:00:01.915Z,98899.59
2023-05-04T11:02:34.077Z,98895.34
2023-05-04T11:05:04.830Z,98891.63
2023-05-04T11:07:37.182Z,98878.31
2023-05-04T11:10:06.996Z,98879.94
2023-05-04T11:12:35.830Z,98883.50
2023-05-04T11:15:06.507Z,98881.59
2023-05-04T11:17:36.531Z,98874.75
2023-05-04T11:20:06.470Z,98869.00
2023-05-04T11:22:34.809Z,98871.97
2023-05-04T11:25:04.427Z,98870.38
2023-05-04T11:27:33.123Z,98864.75
2023-05-04T11:30:03.148Z,98872.03
2023-05-04T11:32:37.015Z,98859.47
2023-05-04T11:35:09.096Z,98857.50
2023-05-04T11:37:41.562Z,98876.53
2023-05-04T11:40:12.371Z,98864.69
2023-05-04T11:42:41.550Z,98847.00
2023-05-04T11:45:14.129Z,98855.59
2023-05-04T11:47:45.151Z,98848.84
2023-05-04T11:50:14.244Z,98845.66
2023-05-04T11:52:43.852Z,98847.28
2023-05-04T11:55:13.884Z,98842.16
2023-05-04T11:57:42.222Z,98838.63
2023-05-04T12:00:12.581Z,98847.13
2023-05-04T12:02:41.025Z,98844.50
2023-05-04T12:05:15.955Z,98851.22
2023-05-04T12:07:44.689Z,98835.25
2023-05-04T12:10:13.742Z,98833.34
2023-05-04T12:12:42.263Z,98841.25
2023-05-04T12:15:11.952Z,98840.16
2023-05-04T12:17:43.765Z,98839.91
2023-05-04T12:20:23.610Z,98825.53
2023-05-04T12:22:52.316Z,98828.66
2023-05-04T12:25:21.021Z,98826.66
2023-05-04T12:27:49.577Z,98822.25
2023-05-04T12:30:18.633Z,98817.38
2023-05-04T12:32:47.214Z,98829.66
2023-05-04T12:35:17.310Z,98816.94
2023-05-04T12:37:45.778Z,98825.03
2023-05-04T12:40:27.851Z,98817.44
2023-05-04T12:42:56.927Z,98814.75
2023-05-04T12:45:25.590Z,98808.84
2023-05-04T12:47:53.980Z,98825.44
2023-05-04T12:50:24.111Z,98810.13
2023-05-04T12:52:52.463Z,98806.84
2023-05-04T12:55:24.720Z,98814.91
2023-05-04T12:57:53.755Z,98808.63
2023-05-04T13:00:22.921Z,98815.22
2023-05-04T13:02:51.705Z,98803.38
2023-05-04T13:05:20.945Z,98794.88
2023-05-04T13:07:50.895Z,98809.22
2023-05-04T13:10:19.834Z,98804.09
2023-05-04T13:12:48.901Z,98796.06
2023-05-04T13:15:17.734Z,98787.84
2023-05-04T13:17:46.157Z,98789.78
2023-05-04T13:20:15.242Z,98791.13
2023-05-04T13:22:43.828Z,98780.75
2023-05-04T13:25:14.301Z,98782.09
2023-05-04T13:27:42.614Z,98779.66
2023-05-04T13:30:12.810Z,98771.47
2023-05-04T13:32:42.250Z,98761.97
2023-05-04T13:35:11.406Z,98766.84
2023-05-04T13:37:39.784Z,98763.97
2023-05-04T13:40:09.676Z,98756.34
2023-05-04T13:42:39.419Z,98760.25
2023-05-04T13:45:09.559Z,98754.53
2023-05-04T13:47:38.062Z,98756.72
2023-05-04T13:50:08.202Z,98755.06
2023-05-04T13:52:37.516Z,98758.69
2023-05-04T13:55:07.390Z,98748.78
2023-05-04T13:57:35.799Z,98750.50
2023-05-04T14:00:08.086Z,98743.88
2023-05-04T14:02:37.099Z,98738.22
2023-05-04T14:05:07.683Z,98742.53
2023-05-04T14:07:37.124Z,98744.97
2023-05-04T14:10:06.652Z,98748.06
2023-05-04T14:12:37.824Z,98740.88
2023-05-04T14:15:09.159Z,98747.22
2023-05-04T14:17:39.791Z,98731.81
2023-05-04T14:20:09.844Z,98730.38
2023-05-04T14:22:41.411Z,98737.84
2023-05-04T14:25:10.697Z,98736.03
2023-05-04T14:27:39.297Z,98733.66
2023-05-04T14:30:10.795Z,98723.78
2023-05-04T14:32:39.017Z,98736.25
2023-05-04T14:35:10.915Z,98726.72
2023-05-04T14:37:41.118Z,98732.38
2023-05-04T14:40:11.031Z,98717.00
2023-05-04T14:42:39.888Z,98727.94
2023-05-04T14:45:11.904Z,98726.81
2023-05-04T14:47:42.357Z,98717.94
2023-05-04T14:50:12.291Z,98720.06
2023-05-04T14:52:40.921Z,98714.28
2023-05-04T14:55:10.513Z,98716.06
2023-05-04T14:57:39.010Z,98721.41
2023-05-04T15:00:09.467Z,98709.34
2023-05-04T15:02:39.720Z,98714.94
2023-05-04T15:05:10.367Z,98711.31
2023-05-04T15:07:38.776Z,98713.16
2023-05-04T15:10:09.583Z,98712.25
2023-05-04T15:12:39.616Z,98714.19
2023-05-04T15:15:09.337Z,98712.47
2023-05-04T15:17:37.711Z,98708.88
2023-05-04T15:20:10.015Z,98699.47
2023-05-04T15:22:38.680Z,98703.28
2023-05-04T15:25:08.334Z,98701.31
2023-05-04T15:27:36.976Z,98700.41
2023-05-04T15:30:09.110Z,98699.69
2023-05-04T15:32:37.803Z,98706.69
2023-05-04T15:35:08.421Z,98705.38
2023-05-04T15:37:36.832Z,98698.84
2023-05-04T15:40:06.228Z,98689.94
2023-05-04T15:42:34.864Z,98684.34
2023-05-04T15:45:03.635Z,98683.22
2023-05-04T15:47:32.178Z,98693.06
2023-05-04T15:50:01.340Z,98689.50
2023-05-04T15:52:31.584Z,98680.09
2023-05-04T15:55:12.339Z,98677.09
2023-05-04T15:57:49.197Z,98673.44
2023-05-04T16:00:18.164Z,98678.16
2023-05-04T16:02:46.600Z,98676.53
2023-05-04T16:05:15.474Z,98672.50
2023-05-04T16:07:45.327Z,98685.94
2023-05-04T16:10:17.321Z,98679.78
2023-05-04T16:12:45.640Z,98682.53
2023-05-04T16:15:14.510Z,98689.13
2023-05-04T16:17:43.199Z,98681.13
2023-05-04T16:20:12.547Z,98687.19
2023-05-04T16:22:41.034Z,98680.81
2023-05-04T16:25:11.916Z,98679.28
2023-05-04T16:27:40.686Z,98677.88
2023-05-04T16:30:10.718Z,98677.81
2023-05-04T16:32:39.073Z,98690.91
2023-05-04T16:35:09.083Z,98689.84
2023-05-04T16:37:38.292Z,98681.66
2023-05-04T16:40:14.223Z,98687.28
2023-05-04T16:42:43.118Z,98677.75
2023-05-04T16:45:14.706Z,98685.72
2023-05-04T16:47:43.108Z,98681.63
2023-05-04T16:50:12.604Z,98675.53
2023-05-04T16:52:41.556Z,98677.03
2023-05-04T16:55:12.572Z,98691.53
2023-05-04T16:57:41.244Z,98692.81
2023-05-04T17:00:12.193Z,98681.31
2023-05-04T17:02:40.767Z,98696.31
2023-05-04T17:05:10.762Z,98686.22
2023-05-04T17:07:39.969Z,98683.41
2023-05-04T17:10:10.927Z,98694.50
2023-05-04T17:12:40.941Z,98693.72
2023-05-04T17:15:11.441Z,98696.56
2023-05-04T17:17:40.408Z,98699.66
2023-05-04T17:20:14.933Z,98700.25
2023-05-04T17:22:44.639Z,98711.22
2023-05-04T17:25:14.692Z,98707.25
2023-05-04T17:27:45.210Z,98704.41
2023-05-04T17:30:14.942Z,98701.69
2023-05-04T17:32:43.441Z,98702.06
2023-05-04T17:35:23.946Z,98706.34
2023-05-04T17:37:55.924Z,98707.63
2023-05-04T17:40:27.698Z,98707.59
2023-05-04T17:42:58.059Z,98707.97
2023-05-04T17:45:27.390Z,98706.41
2023-05-04T17:47:57.279Z,98719.91
2023-05-04T17:50:26.891Z,98716.50
2023-05-04T17:52:56.030Z,98712.72
2023-05-04T17:55:25.478Z,98715.38
2023-05-04T17:57:54.960Z,98722.81
2023-05-04T18:00:25.538Z,98718.75
2023-05-04T18:02:54.108Z,98730.41
2023-05-04T18:05:23.051Z,98730.28
2023-05-04T18:07:51.763Z,98725.09
2023-05-04T18:10:20.593Z,98738.78
2023-05-04T18:12:48.943Z,98737.22
2023-05-04T18:15:18.460Z,98743.34
2023-05-04T18:17:48.943Z,98747.03
2023-05-04T18:20:17.455Z,98741.72
2023-05-04T18:22:45.744Z,98751.28
2023-05-04T18:25:15.413Z,98748.66
2023-05-04T18:27:43.851Z,98756.19
2023-05-04T18:30:13.142Z,98753.09
2023-05-04T18:32:43.480Z,98757.69
2023-05-04T18:35:13.596Z,98757.22
2023-05-04T18:37:42.101Z,98763.88
2023-05-04T18:40:11.695Z,98758.97
2023-05-04T18:42:40.401Z,98763.72
2023-05-04T18:45:11.385Z,98765.34
2023-05-04T18:47:39.799Z,98771.41
2023-05-04T18:50:10.545Z,98763.25
2023-05-04T18:52:40.326Z,98758.66
2023-05-04T18:55:09.509Z,98763.50
2023-05-04T18:57:37.950Z,98767.78
2023-05-04T19:00:09.027Z,98768.59
2023-05-04T19:02:38.419Z,98768.63
2023-05-04T19:05:07.503Z,98768.13
2023-05-04T19:07:35.791Z,98769.25
2023-05-04T19:10:06.882Z,98767.94
2023-05-04T19:12:35.469Z,98767.59
2023-05-04T19:15:04.716Z,98756.66
2023-05-04T19:17:34.503Z,98757.78
2023-05-04T19:20:03.420Z,98757.38
2023-05-04T19:22:31.942Z,98768.25
2023-05-04T19:25:04.114Z,98759.09
2023-05-04T19:27:34.139Z,98766.50
2023-05-04T19:30:02.965Z,98756.78
2023-05-04T19:32:33.048Z,98754.94
2023-05-04T19:35:02.612Z,98755.53
2023-05-04T19:37:31.016Z,98767.53
2023-05-04T19:39:59.758Z,98753.22
2023-05-04T19:42:28.377Z,98756.75
2023-05-04T19:44:58.596Z,98752.50
2023-05-04T19:47:26.914Z,98749.97
2023-05-04T19:49:55.418Z,98745.44
2023-05-04T19:52:23.904Z,98748.56
2023-05-04T19:54:53.855Z,98742.50
2023-05-04T19:57:22.213Z,98748.47
2023-05-04T19:59:50.814Z,98746.06
2023-05-04T20:02:20.509Z,98736.56
2023-05-04T20:04:49.332Z,98731.66
2023-05-04T20:07:17.602Z,98739.22
2023-05-04T20:09:46.254Z,98740.88
2023-05-04T20:12:14.495Z,98747.25
2023-05-04T20:14:43.867Z,98740.47
2023-05-04T20:17:12.233Z,98736.34
2023-05-04T20:19:43.084Z,98741.03
2023-05-04T20:22:11.508Z,98738.97
2023-05-04T20:24:40.897Z,98735.63
2023-05-04T20:27:09.709Z,98732.66
2023-05-04T20:29:38.235Z,98738.19
2023-05-04T20:32:07.406Z,98737.81
2023-05-04T20:34:36.493Z,98729.41
2023-05-04T20:37:06.213Z,98732.66
2023-05-04T20:39:35.244Z,98730.28
2023-05-04T20:42:04.058Z,98733.53
2023-05-04T20:44:32.668Z,98729.31
2023-05-04T20:47:00.978Z,98734.81
2023-05-04T20:49:29.568Z,98732.34
2023-05-04T20:51:58.167Z,98737.06
2023-05-04T20:54:28.091Z,98733.06
2023-05-04T20:56:56.558Z,98741.13
2023-05-04T20:59:25.672Z,98735.28
2023-05-04T21:01:54.200Z,98734.06
2023-05-04T21:04:22.893Z,98735.69
2023-05-04T21:06:51.259Z,98721.78
2023-05-04T21:09:20.046Z,98728.25
2023-05-04T21:11:49.709Z,98718.84
2023-05-04T21:14:18.338Z,98713.94
2023-05-04T21:16:46.613Z,98710.56
2023-05-04T21:19:15.192Z,98714.41
2023-05-04T21:21:43.538Z,98715.00
2023-05-04T21:24:13.625Z,98714.22
2023-05-04T21:26:42.484Z,98713.56
2023-05-04T21:29:15.798Z,98720.47
2023-05-04T21:31:44.313Z,98705.28
2023-05-04T21:34:13.124Z,98703.66
2023-05-04T21:36:41.827Z,98705.53
2023-05-04T21:39:10.424Z,98706.84
2023-05-04T21:41:39.786Z,98699.91
2023-05-04T21:44:08.434Z,98700.13
2023-05-04T21:46:38.014Z,98703.00
2023-05-04T21:49:08.552Z,98698.00
2023-05-04T21:51:37.054Z,98700.94
2023-05-04T21:54:05.806Z,98692.97
2023-05-04T21:56:33.990Z,98701.19
2023-05-04T21:59:03.150Z,98698.44
2023-05-04T22:01:31.425Z,98712.66
2023-05-04T22:04:01.529Z,98707.66
2023-05-04T22:06:30.585Z,98705.78
2023-05-04T22:08:59.198Z,98697.63
2023-05-04T22:11:27.589Z,98710.19
2023-05-04T22:13:56.624Z,98699.16
2023-05-04T22:16:24.935Z,98708.41
2023-05-04T22:18:53.773Z,98698.66
2023-05-04T22:21:23.305Z,98700.81
2023-05-04T22:23:52.154Z,98703.88
2023-05-04T22:26:20.445Z,98703.88
2023-05-04T22:28:48.947Z,98702.63
2023-05-04T22:31:17.454Z,98700.44
2023-05-04T22:33:46.282Z,98703.13
2023-05-04T22:36:14.515Z,98695.97
2023-05-04T22:38:45.218Z,98693.66
2023-05-04T22:41:14.613Z,98685.63
2023-05-04T22:43:43.191Z,98697.63
2023-05-04T22:46:15.879Z,98701.31
2023-05-04T22:48:44.463Z,98701.09
2023-05-04T22:51:13.464Z,98699.75
2023-05-04T22:53:42.067Z,98693.53
2023-05-04T22:56:12.025Z,98692.81
2023-05-04T22:58:40.865Z,98690.78
2023-05-04T23:01:10.282Z,98697.75
2023-05-04T23:03:39.401Z,98694.66
2023-05-04T23:06:08.773Z,98688.50
2023-05-04T23:08:37.545Z,98685.44
2023-05-04T23:11:06.029Z,98693.84
2023-05-04T23:13:36.748Z,98699.97
2023-05-04T23:16:05.550Z,98698.00
2023-05-04T23:18:34.156Z,98697.09
2023-05-04T23:21:02.349Z,98695.78
2023-05-04T23:23:31.286Z,98690.97
2023-05-04T23:25:59.554Z,98691.09
2023-05-04T23:28:28.739Z,98685.47
2023-05-04T23:30:58.602Z,98683.13
2023-05-04T23:33:27.326Z,98678.41
2023-05-04T23:35:56.822Z,98689.53
2023-05-04T23:38:25.436Z,98685.47
2023-05-04T23:40:53.992Z,98684.44
2023-05-04T23:43:23.006Z,98675.66
2023-05-04T23:45:51.670Z,98679.31
2023-05-04T23:48:21.999Z,98679.75
2023-05-04T23:50:53.922Z,98677.28
2023-05-04T23:53:22.706Z,98667.88
2023-05-04T23:55:58.112Z,98681.06
2023-05-04T23:58:27.027Z,98672.97
